Etusivu
METAR-TAF:

METAR-TAF

Lentoasemat :

Belize City, Belize

Phillip Goldston

Leveyspiiri: 17-32N, Pituuspiiri: 088-18W, korkeus merenpinnasta: 5 m

Tämänhetkinen sää

Tämä raportti tehtiin 12 tuntia ja 54 minuuttia sitten, kello 00.00 UTC
Tuuli 6 kn idästä
Lämpötila 30°C
Kosteus 84%
Ilmanpaine 1004 hPa
Näkyvyys 10 km tai enemmän
Muutamia pilviä 2200 ft:n korkeudessa

METAR: MZBZ 270000Z 09006KT 9999 FEW022 30/27 A2965 Q1004 NOSIG

Aika: 06:54 (12:54 UTC)

Sääennuste

Tämä raportti tehtiin 9 tuntia ja 54 minuuttia sitten, kello 03.00 UTC
Ennuste voimassa 27. päivästä klo 06 UTC - 28. päivään klo 06 UTC
Tuuli 8 kn idästä/kaakosta
Näkyvyys 10 km tai enemmän
Muutamia pilviä 2200 ft:n korkeudessa

TAF: MZBZ 270300Z 2706/2806 12008KT 9999 FEW022

Säähavainnot ja -ennusteet yli 4000 lentoasemalta (METAR- ja TAF-raportit).

Käytössä olevat sääasemat on merkitty karttaan keltaisilla ja punaisilla pisteillä.

Aseta hiiri pisteen päälle nähdäksesi sääaseman nimen.

Klikkaa sitten nähdäksesi säähavainnot ja -ennusteet.

Kartan vaihtaminen: klikkaa mustalla rastilla varustettuja vihreitä pisteitä, niin voit zoomata sisään; viivalla varustettua vihreää pistettä, niin voit zoomata ulos tai vihreitä nuolia, niin pääset viereisille kartoille.


METAR-TAF: